Terminal Aerodrome Forecast
Issued by NWS Quad Cities IA IL

Home | Current Version | Previous Version | Text Only | Print | Product List | Glossary On
Versions: 1 2 3 4 5 6 7 8 9 10 11 12 13 14 15 16 17 18 19 20 21 22 23 24 25 26 27
000
FTUS43 KDVN 241100
TAFDBQ
TAF
KDBQ 241130Z 2412/2512 13005KT 6SM BR OVC009
      TEMPO 2412/2414 5SM BR
     FM241500 18008KT P6SM BKN015
     FM241700 19010KT P6SM SCT025 SCT250
     FM250900 18005KT P6SM BKN250=

USA.gov is the U.S. government's official web portal to all federal, state and local government web resources and services.